메인 페이지
METAR-TAF:

METAR-TAF

공항 :

Saint-Hubert, 퀘벡, 캐나다

위도: 45-31N, 경도: 073-25W, 고도: 27m

현재 날씨관측

예보는 36분 전, 00:00시(UTC)에 발표되었습니다.
서북서7kt
온도 -2°C
습도 59%
기압 1011 hPa
시정: 14.5km
고도 9600ft 상공 구름 조금

METAR: CYHU 040000Z AUTO 30007KT 9SM FEW096 M02/M09 A2985 RMK SLP109

시각: 19:36 (00:36 UTC)

예보

예보는 57분 전, 23:39시(UTC)에 발표되었습니다.
예보 대상 시간: 04일 00시부터 04일 24시까지 (UTC)
남서5kt
시정: 10km
고도 4000ft 상공 구름 조금
고도 10000ft 상공 구름 많음
일시적
04일 00시부터 04일 06시까지 (UTC)
고도 4000ft 상공 구름 많음
전환 중
04일 00시부터 04일 02시까지 (UTC)
서북서6kt
04일 0600시부터 (UTC)
북서8kt
시정: 10km
고도 4000ft 상공 구름 조금
04일 1200시부터 (UTC)
서북서10kt
시정: 10km
맑음
04일 1600시부터 (UTC)
12kt, 순간 최대 풍속 22kt
시정: 10km
고도 4000ft 상공 구름 조금
전환 중
04일 16시부터 04일 18시까지 (UTC)
15kt, 순간 최대 풍속 25kt
04일 2200시부터 (UTC)
서북서18kt, 순간 최대 풍속 28kt
시정: 10km
고도 4000ft 상공 구름 많음
고도 8000ft 상공 흐림

TAF: CYHU 032339Z 0400/0424 23005KT P6SM FEW040 BKN100 TEMPO 0400/0406 BKN040 BECMG 0400/0402 30006KT FM040600 32008KT P6SM FEW040 FM041200 29010KT P6SM SKC FM041600 27012G22KT P6SM FEW040 BECMG 0416/0418 28015G25KT FM042200 29018G28KT P6SM BKN040 OVC080 RMK FCST BASED ON AUTO OBS. NXT FCST BY 040600Z

4,000개 이상의 공항 관측 자료 및 예보 (METAR 및 TAF 보고).

지도상에서 검색 가능한 기상관측소가 노란 점과 빨간 점으로 표시되어 있습니다.

기상관측소 명을 보려면 표시 위로 마우스를 이동하세요.

날씨 관측과 예보를 보려면 클릭하세요.

지도 변경 : 확대하려면 엑스 표시가 있는 녹색 버튼, 축소하려면 빼기 표시가 있는 녹색 버튼, 다음 페이지의 지도를 보려면 녹색 화살표를 클릭하세요.


METAR-TAF: